Terminal Aerodrome Forecast
Issued by NWS

Home | Current Version | Previous Version | Text Only | Print | Product List | Glossary On
Versions: 1 2 3 4 5 6 7 8 9 10 11 12 13 14 15 16 17 18
000
FTUS42 TJSJ 010500 RRA
TAFJBQ
TAF
TJBQ 010542Z 0106/0206 09005KT P6SM SCT020 BKN040
      TEMPO 0106/0110 5SM -SHRA SCT015 BKN030
     FM011430 08013KT P6SM SCT030 SCT050
     FM012230 11005KT P6SM SCT025
      AMD NOT SKED TIL 011100=

USA.gov is the U.S. government's official web portal to all federal, state and local government web resources and services.